sensor_id;sensor_type;location;lat;lon;timestamp;temperature;humidity
6863;DHT22;3470;48.738;9.616;2022-10-19T12:38:05;27.00;88.80
6863;DHT22;3470;48.738;9.616;2022-10-19T12:40:42;27.00;86.70
6863;DHT22;3470;48.738;9.616;2022-10-19T12:43:38;26.90;85.10
6863;DHT22;3470;48.738;9.616;2022-10-19T17:14:29;15.00;99.90
6863;DHT22;3470;48.738;9.616;2022-10-19T17:16:54;14.80;99.90
6863;DHT22;3470;48.738;9.616;2022-10-19T17:19:20;14.80;99.90
6863;DHT22;3470;48.738;9.616;2022-10-19T17:21:46;14.80;99.90
6863;DHT22;3470;48.738;9.616;2022-10-19T17:24:14;14.80;99.90
6863;DHT22;3470;48.738;9.616;2022-10-19T17:26:40;14.70;99.90
6863;DHT22;3470;48.738;9.616;2022-10-19T17:29:07;14.70;99.90
6863;DHT22;3470;48.738;9.616;2022-10-19T17:31:33;14.80;99.90
6863;DHT22;3470;48.738;9.616;2022-10-19T17:33:59;14.70;99.90
6863;DHT22;3470;48.738;9.616;2022-10-19T17:36:28;14.70;99.90
6863;DHT22;3470;48.738;9.616;2022-10-19T17:38:56;14.70;99.90
6863;DHT22;3470;48.738;9.616;2022-10-19T17:41:22;14.70;99.90
6863;DHT22;3470;48.738;9.616;2022-10-19T17:43:49;14.80;99.90
6863;DHT22;3470;48.738;9.616;2022-10-19T17:46:20;14.70;99.90
6863;DHT22;3470;48.738;9.616;2022-10-19T17:48:46;14.70;99.90
6863;DHT22;3470;48.738;9.616;2022-10-19T17:51:16;14.80;99.90
6863;DHT22;3470;48.738;9.616;2022-10-19T17:53:43;14.80;99.90
6863;DHT22;3470;48.738;9.616;2022-10-19T17:56:11;14.80;99.90
6863;DHT22;3470;48.738;9.616;2022-10-19T17:58:37;14.70;99.90
6863;DHT22;3470;48.738;9.616;2022-10-19T18:01:03;14.70;99.90
6863;DHT22;3470;48.738;9.616;2022-10-19T18:03:30;14.60;99.90
6863;DHT22;3470;48.738;9.616;2022-10-19T18:06:00;14.60;99.90
6863;DHT22;3470;48.738;9.616;2022-10-19T18:08:27;14.50;99.90
6863;DHT22;3470;48.738;9.616;2022-10-19T18:11:03;14.40;99.90
6863;DHT22;3470;48.738;9.616;2022-10-19T18:13:29;14.30;99.90
6863;DHT22;3470;48.738;9.616;2022-10-19T18:16:03;14.20;99.90
6863;DHT22;3470;48.738;9.616;2022-10-19T18:18:30;14.10;99.90
6863;DHT22;3470;48.738;9.616;2022-10-19T18:20:56;14.00;99.90
6863;DHT22;3470;48.738;9.616;2022-10-19T18:23:22;13.90;99.90
6863;DHT22;3470;48.738;9.616;2022-10-19T18:25:47;13.80;99.90
6863;DHT22;3470;48.738;9.616;2022-10-19T18:28:17;13.60;99.90
6863;DHT22;3470;48.738;9.616;2022-10-19T18:30:43;13.60;99.90
6863;DHT22;3470;48.738;9.616;2022-10-19T18:33:09;13.40;99.90
6863;DHT22;3470;48.738;9.616;2022-10-19T18:35:37;13.40;99.90
6863;DHT22;3470;48.738;9.616;2022-10-19T18:38:03;13.30;99.90
6863;DHT22;3470;48.738;9.616;2022-10-19T18:40:30;13.20;99.90
6863;DHT22;3470;48.738;9.616;2022-10-19T18:42:57;13.10;99.90
6863;DHT22;3470;48.738;9.616;2022-10-19T18:45:23;13.00;99.90
6863;DHT22;3470;48.738;9.616;2022-10-19T18:47:48;12.90;99.90
6863;DHT22;3470;48.738;9.616;2022-10-19T18:50:14;13.00;99.90
6863;DHT22;3470;48.738;9.616;2022-10-19T18:52:42;13.00;99.90
6863;DHT22;3470;48.738;9.616;2022-10-19T18:55:08;13.00;99.90
6863;DHT22;3470;48.738;9.616;2022-10-19T18:57:33;13.00;99.90
6863;DHT22;3470;48.738;9.616;2022-10-19T19:00:00;12.90;99.90
6863;DHT22;3470;48.738;9.616;2022-10-19T19:02:26;12.90;99.90
6863;DHT22;3470;48.738;9.616;2022-10-19T19:04:52;12.80;99.90
6863;DHT22;3470;48.738;9.616;2022-10-19T19:07:17;12.70;99.90
6863;DHT22;3470;48.738;9.616;2022-10-19T19:09:43;12.60;99.90
6863;DHT22;3470;48.738;9.616;2022-10-19T19:12:09;12.60;99.90
6863;DHT22;3470;48.738;9.616;2022-10-19T19:14:37;12.50;99.90
6863;DHT22;3470;48.738;9.616;2022-10-19T19:17:03;12.50;99.90
6863;DHT22;3470;48.738;9.616;2022-10-19T19:19:28;12.50;99.90
6863;DHT22;3470;48.738;9.616;2022-10-19T19:21:54;12.40;99.90
6863;DHT22;3470;48.738;9.616;2022-10-19T19:24:20;12.30;99.90
6863;DHT22;3470;48.738;9.616;2022-10-19T19:26:49;12.30;99.90
6863;DHT22;3470;48.738;9.616;2022-10-19T19:29:16;12.30;99.90
6863;DHT22;3470;48.738;9.616;2022-10-19T19:31:42;12.30;99.90
6863;DHT22;3470;48.738;9.616;2022-10-19T19:34:08;12.40;99.90
6863;DHT22;3470;48.738;9.616;2022-10-19T19:36:35;12.40;99.90
6863;DHT22;3470;48.738;9.616;2022-10-19T19:39:01;12.50;99.90
6863;DHT22;3470;48.738;9.616;2022-10-19T19:41:27;12.50;99.90
6863;DHT22;3470;48.738;9.616;2022-10-19T19:43:55;12.60;99.90
6863;DHT22;3470;48.738;9.616;2022-10-19T19:46:22;12.60;99.90
6863;DHT22;3470;48.738;9.616;2022-10-19T19:48:48;12.70;99.90
6863;DHT22;3470;48.738;9.616;2022-10-19T19:51:16;12.70;99.90
6863;DHT22;3470;48.738;9.616;2022-10-19T19:53:42;12.70;99.90
6863;DHT22;3470;48.738;9.616;2022-10-19T19:56:10;12.60;99.90
6863;DHT22;3470;48.738;9.616;2022-10-19T19:58:36;12.60;99.90
6863;DHT22;3470;48.738;9.616;2022-10-19T20:01:22;12.60;99.90
6863;DHT22;3470;48.738;9.616;2022-10-19T20:03:48;12.60;99.90
6863;DHT22;3470;48.738;9.616;2022-10-19T20:06:16;12.60;99.90
6863;DHT22;3470;48.738;9.616;2022-10-19T20:08:42;12.60;99.90
6863;DHT22;3470;48.738;9.616;2022-10-19T20:11:10;12.60;99.90
6863;DHT22;3470;48.738;9.616;2022-10-19T20:13:37;12.60;99.90
6863;DHT22;3470;48.738;9.616;2022-10-19T20:16:25;12.60;99.90
6863;DHT22;3470;48.738;9.616;2022-10-19T20:18:56;12.60;99.90
6863;DHT22;3470;48.738;9.616;2022-10-19T20:21:22;12.60;99.90
6863;DHT22;3470;48.738;9.616;2022-10-19T20:23:50;12.70;99.90
6863;DHT22;3470;48.738;9.616;2022-10-19T20:26:21;12.60;99.90
6863;DHT22;3470;48.738;9.616;2022-10-19T20:28:47;12.50;99.90
6863;DHT22;3470;48.738;9.616;2022-10-19T20:31:13;12.40;99.90
6863;DHT22;3470;48.738;9.616;2022-10-19T20:33:40;12.40;99.90
6863;DHT22;3470;48.738;9.616;2022-10-19T20:36:11;12.30;99.90
6863;DHT22;3470;48.738;9.616;2022-10-19T20:38:38;12.30;99.90
6863;DHT22;3470;48.738;9.616;2022-10-19T20:41:07;12.40;99.90
6863;DHT22;3470;48.738;9.616;2022-10-19T20:43:34;12.50;99.90
6863;DHT22;3470;48.738;9.616;2022-10-19T20:46:04;12.40;99.90
6863;DHT22;3470;48.738;9.616;2022-10-19T20:48:30;12.30;99.90
6863;DHT22;3470;48.738;9.616;2022-10-19T20:51:16;12.30;99.90
6863;DHT22;3470;48.738;9.616;2022-10-19T20:53:44;12.30;99.90
6863;DHT22;3470;48.738;9.616;2022-10-19T20:56:12;12.30;99.90
6863;DHT22;3470;48.738;9.616;2022-10-19T20:58:38;12.30;99.90
6863;DHT22;3470;48.738;9.616;2022-10-19T21:01:16;12.40;99.90
6863;DHT22;3470;48.738;9.616;2022-10-19T21:03:47;12.40;99.90
6863;DHT22;3470;48.738;9.616;2022-10-19T21:06:13;12.40;99.90
6863;DHT22;3470;48.738;9.616;2022-10-19T21:08:38;12.40;99.90
6863;DHT22;3470;48.738;9.616;2022-10-19T21:11:16;12.40;99.90
6863;DHT22;3470;48.738;9.616;2022-10-19T21:13:42;12.30;99.90
6863;DHT22;3470;48.738;9.616;2022-10-19T21:16:09;12.30;99.90
6863;DHT22;3470;48.738;9.616;2022-10-19T21:18:35;12.30;99.90
6863;DHT22;3470;48.738;9.616;2022-10-19T21:21:29;12.20;99.90
6863;DHT22;3470;48.738;9.616;2022-10-19T21:24:00;12.20;99.90
6863;DHT22;3470;48.738;9.616;2022-10-19T21:26:29;12.10;99.90
6863;DHT22;3470;48.738;9.616;2022-10-19T21:28:55;12.10;99.90
6863;DHT22;3470;48.738;9.616;2022-10-19T21:31:22;12.10;99.90
6863;DHT22;3470;48.738;9.616;2022-10-19T21:33:49;12.20;99.90
6863;DHT22;3470;48.738;9.616;2022-10-19T21:36:16;12.20;99.90
6863;DHT22;3470;48.738;9.616;2022-10-19T21:38:42;12.20;99.90
6863;DHT22;3470;48.738;9.616;2022-10-19T21:41:13;12.20;99.90
6863;DHT22;3470;48.738;9.616;2022-10-19T21:43:39;12.20;99.90
6863;DHT22;3470;48.738;9.616;2022-10-19T21:46:07;12.20;99.90
6863;DHT22;3470;48.738;9.616;2022-10-19T21:48:33;12.20;99.90
6863;DHT22;3470;48.738;9.616;2022-10-19T21:50:59;12.20;99.90
6863;DHT22;3470;48.738;9.616;2022-10-19T21:53:34;12.20;99.90
6863;DHT22;3470;48.738;9.616;2022-10-19T21:55:59;12.20;99.90
6863;DHT22;3470;48.738;9.616;2022-10-19T21:58:25;12.20;99.90
6863;DHT22;3470;48.738;9.616;2022-10-19T22:00:51;12.20;99.90
6863;DHT22;3470;48.738;9.616;2022-10-19T22:03:17;12.20;99.90
6863;DHT22;3470;48.738;9.616;2022-10-19T22:05:50;12.30;99.90
6863;DHT22;3470;48.738;9.616;2022-10-19T22:08:16;12.30;99.90
6863;DHT22;3470;48.738;9.616;2022-10-19T22:10:42;12.30;99.90
6863;DHT22;3470;48.738;9.616;2022-10-19T22:13:07;12.30;99.90
6863;DHT22;3470;48.738;9.616;2022-10-19T22:15:36;12.40;99.90
